sensor_id;sensor_type;location;lat;lon;timestamp;pressure;altitude;pressure_sealevel;temperature;humidity
12973;BME280;6551;51.056;9.466;2023-04-10T00:01:51;98323.03;;;8.86;66.95
12973;BME280;6551;51.056;9.466;2023-04-10T00:04:17;98317.88;;;8.84;67.41
12973;BME280;6551;51.056;9.466;2023-04-10T00:06:44;98329.97;;;8.87;67.26
12973;BME280;6551;51.056;9.466;2023-04-10T00:09:10;98330.09;;;8.78;66.85
12973;BME280;6551;51.056;9.466;2023-04-10T00:11:35;98327.66;;;8.77;66.35
12973;BME280;6551;51.056;9.466;2023-04-10T00:14:03;98327.69;;;8.83;66.69
12973;BME280;6551;51.056;9.466;2023-04-10T00:16:29;98326.38;;;8.73;66.32
12973;BME280;6551;51.056;9.466;2023-04-10T00:18:56;98326.81;;;8.76;66.59
12973;BME280;6551;51.056;9.466;2023-04-10T00:21:22;98323.47;;;8.68;66.83
12973;BME280;6551;51.056;9.466;2023-04-10T00:23:47;98331.22;;;8.69;66.64
12973;BME280;6551;51.056;9.466;2023-04-10T00:26:13;98332.75;;;8.78;67.30
12973;BME280;6551;51.056;9.466;2023-04-10T00:28:38;98339.25;;;8.76;66.46
12973;BME280;6551;51.056;9.466;2023-04-10T00:31:04;98324.53;;;8.73;66.41
12973;BME280;6551;51.056;9.466;2023-04-10T00:33:31;98326.00;;;8.76;66.66
12973;BME280;6551;51.056;9.466;2023-04-10T00:35:58;98326.75;;;8.70;66.27
12973;BME280;6551;51.056;9.466;2023-04-10T00:38:24;98319.88;;;8.54;66.39
12973;BME280;6551;51.056;9.466;2023-04-10T00:40:49;98320.41;;;8.50;67.11
12973;BME280;6551;51.056;9.466;2023-04-10T00:43:17;98321.44;;;8.91;66.33
12973;BME280;6551;51.056;9.466;2023-04-10T00:45:46;98318.88;;;8.83;65.88
12973;BME280;6551;51.056;9.466;2023-04-10T00:48:14;98321.53;;;8.83;66.36
12973;BME280;6551;51.056;9.466;2023-04-10T00:50:39;98325.69;;;8.43;67.07
12973;BME280;6551;51.056;9.466;2023-04-10T00:53:06;98318.72;;;8.42;66.86
12973;BME280;6551;51.056;9.466;2023-04-10T00:55:32;98324.03;;;8.42;66.52
12973;BME280;6551;51.056;9.466;2023-04-10T00:57:58;98324.28;;;8.47;66.15
12973;BME280;6551;51.056;9.466;2023-04-10T01:00:26;98325.22;;;8.61;66.09
12973;BME280;6551;51.056;9.466;2023-04-10T01:02:53;98329.03;;;8.52;66.24
12973;BME280;6551;51.056;9.466;2023-04-10T01:05:21;98326.63;;;8.57;66.27
12973;BME280;6551;51.056;9.466;2023-04-10T01:08:11;98321.19;;;8.65;65.79
12973;BME280;6551;51.056;9.466;2023-04-10T01:10:47;98320.81;;;8.68;65.08
12973;BME280;6551;51.056;9.466;2023-04-10T01:13:34;98320.63;;;8.69;65.25
12973;BME280;6551;51.056;9.466;2023-04-10T01:16:19;98308.63;;;8.73;64.89
12973;BME280;6551;51.056;9.466;2023-04-10T01:18:55;98315.13;;;8.71;64.88
12973;BME280;6551;51.056;9.466;2023-04-10T01:21:24;98316.97;;;8.70;64.95
12973;BME280;6551;51.056;9.466;2023-04-10T01:24:23;98317.91;;;8.63;64.98
12973;BME280;6551;51.056;9.466;2023-04-10T01:27:19;98313.50;;;8.49;65.14
12973;BME280;6551;51.056;9.466;2023-04-10T01:29:55;98323.03;;;8.43;65.46
12973;BME280;6551;51.056;9.466;2023-04-10T01:32:23;98318.59;;;8.29;65.82
12973;BME280;6551;51.056;9.466;2023-04-10T01:34:54;98312.81;;;8.25;65.81
12973;BME280;6551;51.056;9.466;2023-04-10T01:37:31;98313.00;;;8.24;65.98
12973;BME280;6551;51.056;9.466;2023-04-10T01:40:03;98314.75;;;8.32;68.21
12973;BME280;6551;51.056;9.466;2023-04-10T01:42:52;98314.38;;;8.77;69.29
12973;BME280;6551;51.056;9.466;2023-04-10T01:45:24;98320.38;;;9.41;69.93
12973;BME280;6551;51.056;9.466;2023-04-10T01:48:08;98307.84;;;10.17;66.72
12973;BME280;6551;51.056;9.466;2023-04-10T01:50:35;98306.25;;;10.29;60.41
12973;BME280;6551;51.056;9.466;2023-04-10T01:53:05;98313.38;;;10.15;59.98
12973;BME280;6551;51.056;9.466;2023-04-10T01:55:33;98303.22;;;9.84;59.94
12973;BME280;6551;51.056;9.466;2023-04-10T01:58:01;98292.59;;;9.50;61.23
12973;BME280;6551;51.056;9.466;2023-04-10T02:00:28;98301.00;;;9.19;61.65
12973;BME280;6551;51.056;9.466;2023-04-10T02:02:54;98296.25;;;8.87;62.63
12973;BME280;6551;51.056;9.466;2023-04-10T02:05:20;98300.56;;;8.67;63.24
12973;BME280;6551;51.056;9.466;2023-04-10T02:10:46;98290.06;;;8.52;64.39
12973;BME280;6551;51.056;9.466;2023-04-10T02:13:20;98290.16;;;8.44;64.75
12973;BME280;6551;51.056;9.466;2023-04-10T02:15:46;98291.44;;;8.27;64.74
12973;BME280;6551;51.056;9.466;2023-04-10T02:18:16;98288.47;;;8.22;64.94
12973;BME280;6551;51.056;9.466;2023-04-10T02:20:43;98288.34;;;8.09;65.43
12973;BME280;6551;51.056;9.466;2023-04-10T02:23:10;98298.25;;;8.36;65.87
12973;BME280;6551;51.056;9.466;2023-04-10T02:25:37;98290.94;;;8.02;66.26
12973;BME280;6551;51.056;9.466;2023-04-10T02:28:07;98298.97;;;7.94;66.53
12973;BME280;6551;51.056;9.466;2023-04-10T02:30:34;98289.84;;;7.97;66.81
12973;BME280;6551;51.056;9.466;2023-04-10T02:33:01;98291.47;;;7.98;66.00
12973;BME280;6551;51.056;9.466;2023-04-10T02:35:28;98301.16;;;8.05;65.61
12973;BME280;6551;51.056;9.466;2023-04-10T02:37:55;98300.97;;;8.07;65.62
12973;BME280;6551;51.056;9.466;2023-04-10T02:40:21;98291.94;;;8.01;65.93
12973;BME280;6551;51.056;9.466;2023-04-10T02:42:47;98283.88;;;8.09;65.31
12973;BME280;6551;51.056;9.466;2023-04-10T02:45:14;98286.84;;;8.21;65.48
12973;BME280;6551;51.056;9.466;2023-04-10T02:47:41;98284.19;;;8.21;65.38
12973;BME280;6551;51.056;9.466;2023-04-10T02:50:07;98282.75;;;8.18;64.92
12973;BME280;6551;51.056;9.466;2023-04-10T02:52:32;98291.69;;;8.17;64.91
12973;BME280;6551;51.056;9.466;2023-04-10T02:54:58;98280.34;;;8.23;64.86
12973;BME280;6551;51.056;9.466;2023-04-10T02:57:24;98286.75;;;8.29;64.42
12973;BME280;6551;51.056;9.466;2023-04-10T02:59:51;98291.72;;;8.39;64.44
12973;BME280;6551;51.056;9.466;2023-04-10T03:02:16;98279.13;;;8.41;64.47
12973;BME280;6551;51.056;9.466;2023-04-10T03:04:42;98275.31;;;8.50;63.88
12973;BME280;6551;51.056;9.466;2023-04-10T03:07:08;98275.75;;;8.53;63.73
12973;BME280;6551;51.056;9.466;2023-04-10T03:09:35;98266.94;;;8.46;64.48
12973;BME280;6551;51.056;9.466;2023-04-10T03:12:02;98265.34;;;8.52;64.15
12973;BME280;6551;51.056;9.466;2023-04-10T03:14:29;98264.31;;;8.53;64.10
12973;BME280;6551;51.056;9.466;2023-04-10T03:16:54;98268.16;;;8.50;64.10
12973;BME280;6551;51.056;9.466;2023-04-10T03:19:21;98268.25;;;8.57;64.08
12973;BME280;6551;51.056;9.466;2023-04-10T03:21:48;98275.00;;;8.59;63.96
12973;BME280;6551;51.056;9.466;2023-04-10T03:24:14;98267.69;;;8.40;64.09
12973;BME280;6551;51.056;9.466;2023-04-10T03:26:40;98271.38;;;8.24;64.10
12973;BME280;6551;51.056;9.466;2023-04-10T03:29:06;98272.88;;;8.12;64.54
12973;BME280;6551;51.056;9.466;2023-04-10T03:31:33;98265.75;;;8.13;65.21
12973;BME280;6551;51.056;9.466;2023-04-10T03:33:59;98262.72;;;8.16;64.81
12973;BME280;6551;51.056;9.466;2023-04-10T03:36:27;98266.19;;;8.16;65.08
12973;BME280;6551;51.056;9.466;2023-04-10T03:38:52;98268.41;;;8.13;64.88
12973;BME280;6551;51.056;9.466;2023-04-10T03:41:18;98261.69;;;8.17;65.07
12973;BME280;6551;51.056;9.466;2023-04-10T03:43:44;98258.41;;;8.30;64.94
12973;BME280;6551;51.056;9.466;2023-04-10T03:46:10;98257.59;;;8.14;64.69
12973;BME280;6551;51.056;9.466;2023-04-10T03:48:36;98260.06;;;8.16;65.24
12973;BME280;6551;51.056;9.466;2023-04-10T03:51:04;98260.13;;;8.22;65.38
12973;BME280;6551;51.056;9.466;2023-04-10T03:53:32;98251.16;;;8.23;65.94
12973;BME280;6551;51.056;9.466;2023-04-10T03:56:01;98249.69;;;8.36;66.42
12973;BME280;6551;51.056;9.466;2023-04-10T03:58:28;98250.44;;;8.78;67.45
12973;BME280;6551;51.056;9.466;2023-04-10T04:00:54;98245.88;;;9.28;66.59
12973;BME280;6551;51.056;9.466;2023-04-10T04:03:20;98248.81;;;9.93;64.36
12973;BME280;6551;51.056;9.466;2023-04-10T04:05:46;98252.88;;;10.63;61.95
12973;BME280;6551;51.056;9.466;2023-04-10T04:08:11;98256.28;;;11.23;60.28
12973;BME280;6551;51.056;9.466;2023-04-10T04:10:38;98248.31;;;11.87;58.75
12973;BME280;6551;51.056;9.466;2023-04-10T04:13:05;98251.19;;;12.29;57.28
12973;BME280;6551;51.056;9.466;2023-04-10T04:15:31;98250.44;;;12.47;56.61
12973;BME280;6551;51.056;9.466;2023-04-10T04:17:57;98239.94;;;12.77;55.82
12973;BME280;6551;51.056;9.466;2023-04-10T04:20:25;98242.44;;;12.97;55.42
12973;BME280;6551;51.056;9.466;2023-04-10T04:22:50;98238.56;;;13.17;54.36
12973;BME280;6551;51.056;9.466;2023-04-10T04:25:17;98231.75;;;13.39;53.96
12973;BME280;6551;51.056;9.466;2023-04-10T04:27:44;98246.75;;;13.59;53.33
12973;BME280;6551;51.056;9.466;2023-04-10T04:30:10;98240.44;;;13.53;53.46
12973;BME280;6551;51.056;9.466;2023-04-10T04:32:36;98239.47;;;12.80;50.92
12973;BME280;6551;51.056;9.466;2023-04-10T04:35:03;98251.81;;;11.87;53.15
12973;BME280;6551;51.056;9.466;2023-04-10T04:37:31;98255.72;;;11.01;54.92
12973;BME280;6551;51.056;9.466;2023-04-10T04:39:58;98253.81;;;10.16;57.40
12973;BME280;6551;51.056;9.466;2023-04-10T04:42:24;98249.44;;;9.48;58.91
12973;BME280;6551;51.056;9.466;2023-04-10T04:44:49;98254.50;;;9.02;61.24
12973;BME280;6551;51.056;9.466;2023-04-10T04:47:15;98248.00;;;8.56;61.91
12973;BME280;6551;51.056;9.466;2023-04-10T04:49:42;98248.88;;;8.35;63.45
12973;BME280;6551;51.056;9.466;2023-04-10T04:52:09;98251.75;;;8.19;64.31
12973;BME280;6551;51.056;9.466;2023-04-10T04:54:35;98253.72;;;7.96;64.74
12973;BME280;6551;51.056;9.466;2023-04-10T04:57:02;98248.72;;;7.86;65.12
12973;BME280;6551;51.056;9.466;2023-04-10T04:59:29;98253.13;;;7.79;65.86
12973;BME280;6551;51.056;9.466;2023-04-10T05:01:56;98260.94;;;7.66;66.44
12973;BME280;6551;51.056;9.466;2023-04-10T05:04:23;98258.72;;;7.70;66.47
12973;BME280;6551;51.056;9.466;2023-04-10T05:06:49;98258.00;;;7.61;66.47
12973;BME280;6551;51.056;9.466;2023-04-10T05:09:16;98262.75;;;7.80;66.48
12973;BME280;6551;51.056;9.466;2023-04-10T05:11:41;98256.38;;;7.60;67.12
12973;BME280;6551;51.056;9.466;2023-04-10T05:14:07;98253.97;;;7.65;66.86
12973;BME280;6551;51.056;9.466;2023-04-10T05:16:34;98255.91;;;7.71;67.35
12973;BME280;6551;51.056;9.466;2023-04-10T05:19:00;98262.66;;;7.74;66.84
12973;BME280;6551;51.056;9.466;2023-04-10T05:21:27;98260.00;;;7.74;66.93
12973;BME280;6551;51.056;9.466;2023-04-10T05:23:53;98268.41;;;7.77;67.56
12973;BME280;6551;51.056;9.466;2023-04-10T05:26:22;98262.75;;;8.01;66.92
12973;BME280;6551;51.056;9.466;2023-04-10T05:28:47;98262.28;;;8.12;66.78
12973;BME280;6551;51.056;9.466;2023-04-10T05:31:13;98262.81;;;8.44;66.09
12973;BME280;6551;51.056;9.466;2023-04-10T05:33:39;98267.59;;;8.76;65.00
12973;BME280;6551;51.056;9.466;2023-04-10T05:36:07;98270.16;;;8.91;64.19
12973;BME280;6551;51.056;9.466;2023-04-10T05:38:34;98262.72;;;9.07;63.85
12973;BME280;6551;51.056;9.466;2023-04-10T05:41:01;98261.78;;;9.21;63.54
12973;BME280;6551;51.056;9.466;2023-04-10T05:43:28;98268.81;;;9.35;63.12
12973;BME280;6551;51.056;9.466;2023-04-10T05:45:55;98274.00;;;9.50;62.38
12973;BME280;6551;51.056;9.466;2023-04-10T05:48:20;98264.25;;;9.64;62.17
12973;BME280;6551;51.056;9.466;2023-04-10T05:50:49;98264.31;;;9.83;61.80
12973;BME280;6551;51.056;9.466;2023-04-10T05:53:18;98278.41;;;10.31;61.61
12973;BME280;6551;51.056;9.466;2023-04-10T05:55:49;98270.91;;;10.94;60.42
12973;BME280;6551;51.056;9.466;2023-04-10T05:58:18;98278.22;;;11.31;58.93
12973;BME280;6551;51.056;9.466;2023-04-10T06:00:46;98278.31;;;11.82;57.76
12973;BME280;6551;51.056;9.466;2023-04-10T06:03:11;98267.00;;;12.24;57.25
12973;BME280;6551;51.056;9.466;2023-04-10T06:05:37;98263.38;;;12.75;56.00
12973;BME280;6551;51.056;9.466;2023-04-10T06:08:04;98264.97;;;13.50;54.00
12973;BME280;6551;51.056;9.466;2023-04-10T06:10:32;98262.03;;;14.06;53.04
12973;BME280;6551;51.056;9.466;2023-04-10T06:12:59;98264.69;;;14.54;52.00
12973;BME280;6551;51.056;9.466;2023-04-10T06:15:30;98261.97;;;14.95;50.57
12973;BME280;6551;51.056;9.466;2023-04-10T06:17:57;98268.31;;;15.47;49.92
12973;BME280;6551;51.056;9.466;2023-04-10T06:20:23;98264.41;;;15.78;48.48
12973;BME280;6551;51.056;9.466;2023-04-10T06:22:50;98251.88;;;16.23;47.41
12973;BME280;6551;51.056;9.466;2023-04-10T06:25:18;98257.25;;;16.52;47.66
12973;BME280;6551;51.056;9.466;2023-04-10T06:27:43;98265.72;;;16.44;47.40
12973;BME280;6551;51.056;9.466;2023-04-10T06:30:09;98254.34;;;16.70;47.21
12973;BME280;6551;51.056;9.466;2023-04-10T06:32:35;98255.03;;;16.93;45.98
12973;BME280;6551;51.056;9.466;2023-04-10T06:35:02;98252.91;;;16.95;45.36
12973;BME280;6551;51.056;9.466;2023-04-10T06:37:30;98256.25;;;17.03;46.07
12973;BME280;6551;51.056;9.466;2023-04-10T06:40:08;98247.34;;;16.85;45.37
12973;BME280;6551;51.056;9.466;2023-04-10T06:42:35;98243.44;;;17.10;45.75
12973;BME280;6551;51.056;9.466;2023-04-10T06:45:07;98240.81;;;17.31;45.19
12973;BME280;6551;51.056;9.466;2023-04-10T06:47:34;98239.72;;;17.49;44.66
12973;BME280;6551;51.056;9.466;2023-04-10T06:50:00;98243.56;;;17.36;44.11
12973;BME280;6551;51.056;9.466;2023-04-10T06:52:27;98240.00;;;17.31;44.93
12973;BME280;6551;51.056;9.466;2023-04-10T06:54:54;98234.31;;;17.11;44.37
12973;BME280;6551;51.056;9.466;2023-04-10T06:57:21;98228.69;;;16.95;45.43
12973;BME280;6551;51.056;9.466;2023-04-10T06:59:47;98230.56;;;17.12;45.57
12973;BME280;6551;51.056;9.466;2023-04-10T07:02:12;98227.78;;;17.62;45.22
12973;BME280;6551;51.056;9.466;2023-04-10T07:04:38;98222.56;;;18.20;44.48
12973;BME280;6551;51.056;9.466;2023-04-10T07:07:04;98225.59;;;18.50;42.94
12973;BME280;6551;51.056;9.466;2023-04-10T07:09:36;98217.75;;;18.49;43.26
12973;BME280;6551;51.056;9.466;2023-04-10T07:12:04;98216.06;;;18.69;43.15
12973;BME280;6551;51.056;9.466;2023-04-10T07:14:32;98218.47;;;19.03;42.72
12973;BME280;6551;51.056;9.466;2023-04-10T07:17:03;98228.84;;;18.84;43.54
12973;BME280;6551;51.056;9.466;2023-04-10T07:19:30;98219.53;;;18.65;43.77
12973;BME280;6551;51.056;9.466;2023-04-10T07:21:57;98221.19;;;18.44;43.74
12973;BME280;6551;51.056;9.466;2023-04-10T07:24:23;98221.88;;;18.30;43.69
12973;BME280;6551;51.056;9.466;2023-04-10T07:26:50;98208.81;;;17.95;44.12
12973;BME280;6551;51.056;9.466;2023-04-10T07:29:17;98209.81;;;17.89;45.00
12973;BME280;6551;51.056;9.466;2023-04-10T07:31:43;98209.81;;;17.89;45.13
12973;BME280;6551;51.056;9.466;2023-04-10T07:34:10;98203.38;;;18.17;44.64
12973;BME280;6551;51.056;9.466;2023-04-10T07:36:37;98211.41;;;18.38;44.29
12973;BME280;6551;51.056;9.466;2023-04-10T07:39:04;98208.97;;;18.37;44.25
12973;BME280;6551;51.056;9.466;2023-04-10T07:41:31;98206.75;;;18.55;44.42
12973;BME280;6551;51.056;9.466;2023-04-10T07:43:58;98204.41;;;18.37;43.66
12973;BME280;6551;51.056;9.466;2023-04-10T07:46:26;98208.06;;;18.26;42.71
12973;BME280;6551;51.056;9.466;2023-04-10T07:48:52;98202.81;;;17.88;43.16
12973;BME280;6551;51.056;9.466;2023-04-10T07:51:20;98194.31;;;18.01;44.24
12973;BME280;6551;51.056;9.466;2023-04-10T07:53:47;98198.75;;;18.12;44.23
12973;BME280;6551;51.056;9.466;2023-04-10T07:56:18;98187.09;;;18.33;44.31
12973;BME280;6551;51.056;9.466;2023-04-10T07:58:44;98183.44;;;18.18;43.32
12973;BME280;6551;51.056;9.466;2023-04-10T08:01:10;98184.78;;;18.15;44.01
12973;BME280;6551;51.056;9.466;2023-04-10T08:03:42;98179.13;;;18.43;44.25
12973;BME280;6551;51.056;9.466;2023-04-10T08:06:10;98177.88;;;18.51;42.92
12973;BME280;6551;51.056;9.466;2023-04-10T08:08:37;98184.94;;;18.57;43.03
12973;BME280;6551;51.056;9.466;2023-04-10T08:11:29;98176.03;;;18.30;42.29
12973;BME280;6551;51.056;9.466;2023-04-10T08:13:59;98180.06;;;17.79;42.58
12973;BME280;6551;51.056;9.466;2023-04-10T08:16:32;98176.00;;;17.76;43.30
12973;BME280;6551;51.056;9.466;2023-04-10T08:19:01;98177.06;;;18.02;42.65
12973;BME280;6551;51.056;9.466;2023-04-10T08:21:34;98175.38;;;18.18;42.82
12973;BME280;6551;51.056;9.466;2023-04-10T08:24:02;98160.03;;;17.96;42.34
12973;BME280;6551;51.056;9.466;2023-04-10T08:26:28;98165.00;;;18.36;43.31
12973;BME280;6551;51.056;9.466;2023-04-10T08:28:59;98165.25;;;18.61;43.08
12973;BME280;6551;51.056;9.466;2023-04-10T08:31:27;98172.03;;;18.37;42.22
12973;BME280;6551;51.056;9.466;2023-04-10T08:33:53;98159.59;;;18.04;43.31
12973;BME280;6551;51.056;9.466;2023-04-10T08:36:20;98160.34;;;18.00;42.93
12973;BME280;6551;51.056;9.466;2023-04-10T08:38:47;98161.63;;;18.19;43.25
12973;BME280;6551;51.056;9.466;2023-04-10T08:41:18;98159.59;;;18.04;43.83
12973;BME280;6551;51.056;9.466;2023-04-10T08:43:45;98151.91;;;18.18;43.81
12973;BME280;6551;51.056;9.466;2023-04-10T08:46:15;98150.03;;;17.92;43.71
12973;BME280;6551;51.056;9.466;2023-04-10T08:48:47;98151.81;;;18.08;43.13
12973;BME280;6551;51.056;9.466;2023-04-10T08:51:23;98148.38;;;18.44;44.50
12973;BME280;6551;51.056;9.466;2023-04-10T08:53:57;98156.47;;;18.76;42.89
12973;BME280;6551;51.056;9.466;2023-04-10T08:56:24;98160.16;;;18.60;42.82
12973;BME280;6551;51.056;9.466;2023-04-10T08:58:51;98141.28;;;18.65;42.80
12973;BME280;6551;51.056;9.466;2023-04-10T09:01:22;98159.03;;;18.02;42.76
12973;BME280;6551;51.056;9.466;2023-04-10T09:03:48;98147.59;;;17.90;42.95
12973;BME280;6551;51.056;9.466;2023-04-10T09:06:13;98137.31;;;18.14;43.59
12973;BME280;6551;51.056;9.466;2023-04-10T09:08:39;98150.66;;;17.99;44.24
12973;BME280;6551;51.056;9.466;2023-04-10T09:11:05;98138.78;;;18.27;43.06
12973;BME280;6551;51.056;9.466;2023-04-10T09:13:41;98127.81;;;18.38;42.99
12973;BME280;6551;51.056;9.466;2023-04-10T09:16:10;98119.09;;;18.58;43.83
12973;BME280;6551;51.056;9.466;2023-04-10T09:18:50;98123.66;;;18.94;42.73
12973;BME280;6551;51.056;9.466;2023-04-10T09:21:20;98120.63;;;18.81;42.37
12973;BME280;6551;51.056;9.466;2023-04-10T09:23:48;98127.63;;;18.45;42.76
12973;BME280;6551;51.056;9.466;2023-04-10T09:26:30;98107.69;;;18.46;42.70
12973;BME280;6551;51.056;9.466;2023-04-10T09:28:58;98095.06;;;18.51;43.21
12973;BME280;6551;51.056;9.466;2023-04-10T09:31:35;98114.59;;;18.37;42.26
12973;BME280;6551;51.056;9.466;2023-04-10T09:34:21;98109.69;;;18.29;41.86
12973;BME280;6551;51.056;9.466;2023-04-10T09:36:59;98097.53;;;17.99;43.87
12973;BME280;6551;51.056;9.466;2023-04-10T09:39:38;98082.81;;;18.07;42.82
12973;BME280;6551;51.056;9.466;2023-04-10T09:42:11;98100.03;;;18.06;42.99
12973;BME280;6551;51.056;9.466;2023-04-10T09:44:39;98064.88;;;18.23;43.35
12973;BME280;6551;51.056;9.466;2023-04-10T09:47:19;98080.19;;;18.17;44.19
12973;BME280;6551;51.056;9.466;2023-04-10T09:49:58;98060.34;;;18.28;43.59
12973;BME280;6551;51.056;9.466;2023-04-10T09:52:31;98068.97;;;18.62;43.29
12973;BME280;6551;51.056;9.466;2023-04-10T09:55:06;98058.25;;;18.72;42.35
12973;BME280;6551;51.056;9.466;2023-04-10T09:57:34;98061.66;;;18.26;43.19
12973;BME280;6551;51.056;9.466;2023-04-10T10:00:04;98060.75;;;18.47;43.22
12973;BME280;6551;51.056;9.466;2023-04-10T10:02:35;98054.72;;;18.30;43.80
12973;BME280;6551;51.056;9.466;2023-04-10T10:05:04;98034.84;;;18.41;43.40
12973;BME280;6551;51.056;9.466;2023-04-10T10:07:31;98034.59;;;18.10;43.39
12973;BME280;6551;51.056;9.466;2023-04-10T10:09:59;98045.00;;;18.34;44.37
12973;BME280;6551;51.056;9.466;2023-04-10T10:12:50;98040.44;;;18.34;43.86
12973;BME280;6551;51.056;9.466;2023-04-10T10:15:55;98028.84;;;18.34;43.33
12973;BME280;6551;51.056;9.466;2023-04-10T10:18:47;98024.06;;;18.88;44.44
12973;BME280;6551;51.056;9.466;2023-04-10T10:21:17;98023.25;;;18.82;42.68
12973;BME280;6551;51.056;9.466;2023-04-10T10:23:47;98016.63;;;19.20;43.79
12973;BME280;6551;51.056;9.466;2023-04-10T10:26:19;98025.31;;;19.32;43.19
12973;BME280;6551;51.056;9.466;2023-04-10T10:28:50;98008.53;;;19.15;41.42
12973;BME280;6551;51.056;9.466;2023-04-10T10:31:20;98001.97;;;18.91;41.54
12973;BME280;6551;51.056;9.466;2023-04-10T10:33:51;97997.31;;;18.76;41.28
12973;BME280;6551;51.056;9.466;2023-04-10T10:36:21;98002.16;;;18.32;42.49
12973;BME280;6551;51.056;9.466;2023-04-10T10:44:46;97996.34;;;18.13;43.59
12973;BME280;6551;51.056;9.466;2023-04-10T10:47:21;97996.84;;;18.47;42.95
12973;BME280;6551;51.056;9.466;2023-04-10T10:49:56;97991.72;;;18.98;43.11
12973;BME280;6551;51.056;9.466;2023-04-10T10:52:43;97983.09;;;18.96;42.22
12973;BME280;6551;51.056;9.466;2023-04-10T10:57:51;97970.00;;;19.45;41.92
12973;BME280;6551;51.056;9.466;2023-04-10T11:00:18;97964.56;;;19.30;42.29
12973;BME280;6551;51.056;9.466;2023-04-10T11:02:57;97956.34;;;18.99;41.62
12973;BME280;6551;51.056;9.466;2023-04-10T11:08:49;97953.03;;;19.79;40.82
12973;BME280;6551;51.056;9.466;2023-04-10T11:16:16;97928.66;;;20.05;40.76
12973;BME280;6551;51.056;9.466;2023-04-10T11:21:21;97922.72;;;20.03;40.17
12973;BME280;6551;51.056;9.466;2023-04-10T11:26:39;97912.72;;;20.08;40.66
12973;BME280;6551;51.056;9.466;2023-04-10T11:32:03;97908.97;;;19.49;40.38
12973;BME280;6551;51.056;9.466;2023-04-10T11:34:31;97902.19;;;19.41;40.06
12973;BME280;6551;51.056;9.466;2023-04-10T11:36:59;97888.72;;;19.56;41.56
12973;BME280;6551;51.056;9.466;2023-04-10T11:39:29;97895.44;;;19.84;41.39
12973;BME280;6551;51.056;9.466;2023-04-10T11:41:55;97894.59;;;19.94;40.96
12973;BME280;6551;51.056;9.466;2023-04-10T11:46:51;97875.72;;;19.78;40.05
12973;BME280;6551;51.056;9.466;2023-04-10T11:49:40;97879.47;;;19.22;39.69
12973;BME280;6551;51.056;9.466;2023-04-10T11:52:05;97868.41;;;19.34;40.46
12973;BME280;6551;51.056;9.466;2023-04-10T11:54:32;97867.09;;;19.41;40.69
12973;BME280;6551;51.056;9.466;2023-04-10T11:57:04;97857.09;;;19.62;41.25
12973;BME280;6551;51.056;9.466;2023-04-10T11:59:32;97853.56;;;19.31;40.04
12973;BME280;6551;51.056;9.466;2023-04-10T12:02:11;97839.41;;;18.58;39.61
12973;BME280;6551;51.056;9.466;2023-04-10T12:04:39;97848.09;;;18.65;40.62
12973;BME280;6551;51.056;9.466;2023-04-10T12:07:06;97842.00;;;18.38;41.20
12973;BME280;6551;51.056;9.466;2023-04-10T12:09:32;97833.91;;;18.38;40.41
12973;BME280;6551;51.056;9.466;2023-04-10T12:12:07;97835.66;;;18.64;40.73
12973;BME280;6551;51.056;9.466;2023-04-10T12:14:41;97835.91;;;18.58;40.42
12973;BME280;6551;51.056;9.466;2023-04-10T12:17:11;97815.84;;;18.34;40.14
12973;BME280;6551;51.056;9.466;2023-04-10T12:19:38;97824.09;;;18.07;40.57
12973;BME280;6551;51.056;9.466;2023-04-10T12:22:05;97835.94;;;17.59;39.97
12973;BME280;6551;51.056;9.466;2023-04-10T12:24:45;97819.63;;;17.81;42.20
12973;BME280;6551;51.056;9.466;2023-04-10T12:27:20;97823.63;;;17.68;41.20
12973;BME280;6551;51.056;9.466;2023-04-10T12:29:49;97827.75;;;17.86;41.50
12973;BME280;6551;51.056;9.466;2023-04-10T12:32:16;97831.78;;;17.88;40.74
12973;BME280;6551;51.056;9.466;2023-04-10T12:34:49;97859.66;;;18.04;41.77
12973;BME280;6551;51.056;9.466;2023-04-10T12:37:16;97817.81;;;17.96;41.54
12973;BME280;6551;51.056;9.466;2023-04-10T12:39:42;97811.34;;;17.92;43.15
12973;BME280;6551;51.056;9.466;2023-04-10T12:42:17;97820.16;;;17.78;42.64
12973;BME280;6551;51.056;9.466;2023-04-10T12:45:10;97815.41;;;17.95;42.03
12973;BME280;6551;51.056;9.466;2023-04-10T12:47:49;97815.09;;;17.86;42.30
12973;BME280;6551;51.056;9.466;2023-04-10T12:50:19;97811.25;;;17.77;42.04
12973;BME280;6551;51.056;9.466;2023-04-10T12:53:02;97820.44;;;17.76;41.42
12973;BME280;6551;51.056;9.466;2023-04-10T12:55:30;97821.94;;;17.57;41.89
12973;BME280;6551;51.056;9.466;2023-04-10T12:58:17;97808.22;;;17.64;42.21
12973;BME280;6551;51.056;9.466;2023-04-10T13:00:47;97797.28;;;17.80;41.97
12973;BME280;6551;51.056;9.466;2023-04-10T13:03:14;97804.91;;;17.51;41.81
12973;BME280;6551;51.056;9.466;2023-04-10T13:05:40;97792.91;;;17.74;42.69
12973;BME280;6551;51.056;9.466;2023-04-10T13:08:06;97787.00;;;17.77;42.69
12973;BME280;6551;51.056;9.466;2023-04-10T13:10:32;97788.78;;;18.08;43.77
12973;BME280;6551;51.056;9.466;2023-04-10T13:12:59;97775.31;;;18.08;42.05
12973;BME280;6551;51.056;9.466;2023-04-10T13:15:28;97784.75;;;18.11;42.36
12973;BME280;6551;51.056;9.466;2023-04-10T13:17:55;97771.03;;;18.07;41.17
12973;BME280;6551;51.056;9.466;2023-04-10T13:20:22;97767.28;;;18.24;41.77
12973;BME280;6551;51.056;9.466;2023-04-10T13:22:48;97772.59;;;17.98;42.34
12973;BME280;6551;51.056;9.466;2023-04-10T13:25:15;97775.16;;;18.35;41.69
12973;BME280;6551;51.056;9.466;2023-04-10T13:27:40;97776.75;;;18.36;41.39
12973;BME280;6551;51.056;9.466;2023-04-10T13:30:08;97756.63;;;18.54;41.53
12973;BME280;6551;51.056;9.466;2023-04-10T13:32:35;97761.19;;;18.63;41.21
12973;BME280;6551;51.056;9.466;2023-04-10T13:35:02;97749.06;;;18.66;41.29
12973;BME280;6551;51.056;9.466;2023-04-10T13:37:30;97748.53;;;18.49;41.58
12973;BME280;6551;51.056;9.466;2023-04-10T13:39:55;97750.69;;;18.57;42.79
12973;BME280;6551;51.056;9.466;2023-04-10T13:42:21;97742.53;;;18.42;40.71
12973;BME280;6551;51.056;9.466;2023-04-10T13:44:48;97733.13;;;18.49;40.52
12973;BME280;6551;51.056;9.466;2023-04-10T13:47:13;97731.28;;;18.60;41.54
12973;BME280;6551;51.056;9.466;2023-04-10T13:49:39;97708.06;;;18.59;42.17
12973;BME280;6551;51.056;9.466;2023-04-10T13:52:06;97713.72;;;18.83;42.46
12973;BME280;6551;51.056;9.466;2023-04-10T13:54:33;97707.00;;;18.75;40.94
12973;BME280;6551;51.056;9.466;2023-04-10T13:57:00;97706.97;;;19.05;42.69